createdAt,value
2023-05-01T00:00:58.589Z,10.51
2023-05-01T00:01:58.569Z,10.55
2023-05-01T00:02:58.617Z,10.55
2023-05-01T00:03:58.854Z,10.54
2023-05-01T00:04:58.568Z,10.52
2023-05-01T00:05:58.594Z,10.50
2023-05-01T00:07:58.514Z,10.58
2023-05-01T00:08:58.478Z,10.59
2023-05-01T00:09:58.796Z,10.63
2023-05-01T00:10:58.474Z,10.63
2023-05-01T00:11:58.437Z,10.63
2023-05-01T00:12:58.421Z,10.59
2023-05-01T00:13:58.410Z,10.59
2023-05-01T00:14:58.394Z,10.55
2023-05-01T00:15:58.426Z,10.52
2023-05-01T00:16:58.548Z,10.58
2023-05-01T00:17:58.460Z,10.59
2023-05-01T00:18:58.342Z,10.59
2023-05-01T00:19:58.644Z,10.63
2023-05-01T00:20:58.315Z,10.69
2023-05-01T00:21:58.342Z,10.72
2023-05-01T00:22:58.287Z,10.77
2023-05-01T00:23:58.276Z,10.73
2023-05-01T00:24:58.274Z,10.78
2023-05-01T00:25:58.248Z,10.81
2023-05-01T00:26:58.235Z,10.80
2023-05-01T00:27:58.225Z,10.81
2023-05-01T00:28:58.246Z,10.78
2023-05-01T00:29:58.446Z,10.80
2023-05-01T00:30:58.191Z,10.80
2023-05-01T00:31:58.209Z,10.87
2023-05-01T00:32:58.240Z,10.80
2023-05-01T00:33:58.150Z,10.72
2023-05-01T00:34:58.130Z,10.70
2023-05-01T00:35:58.120Z,10.70
2023-05-01T00:36:58.112Z,10.63
2023-05-01T00:37:58.140Z,10.54
2023-05-01T00:38:58.088Z,10.52
2023-05-01T00:39:58.372Z,10.45
2023-05-01T00:40:58.051Z,10.38
2023-05-01T00:41:58.040Z,10.44
2023-05-01T00:42:58.023Z,10.40
2023-05-01T00:43:58.019Z,10.44
2023-05-01T00:44:57.999Z,10.42
2023-05-01T00:45:58.017Z,10.47
2023-05-01T00:46:58.008Z,10.45
2023-05-01T00:47:58.025Z,10.47
2023-05-01T00:48:57.949Z,10.45
2023-05-01T00:49:58.160Z,10.50
2023-05-01T00:50:57.919Z,10.51
2023-05-01T00:51:57.910Z,10.54
2023-05-01T00:52:57.892Z,10.55
2023-05-01T00:53:57.902Z,10.54
2023-05-01T00:54:57.878Z,10.52
2023-05-01T00:55:57.855Z,10.45
2023-05-01T00:56:57.838Z,10.40
2023-05-01T00:57:57.829Z,10.34
2023-05-01T00:58:57.817Z,10.42
2023-05-01T00:59:58.022Z,10.41
2023-05-01T01:00:57.879Z,10.41
2023-05-01T01:01:57.776Z,10.44
2023-05-01T01:02:57.775Z,10.41
2023-05-01T01:03:57.781Z,10.41
2023-05-01T01:04:57.968Z,10.38
2023-05-01T01:05:57.736Z,10.36
2023-05-01T01:06:57.718Z,10.42
2023-05-01T01:07:57.693Z,10.51
2023-05-01T01:08:57.673Z,10.59
2023-05-01T01:09:58.095Z,10.63
2023-05-01T01:10:57.648Z,10.72
2023-05-01T01:11:57.636Z,10.78
2023-05-01T01:12:57.621Z,10.80
2023-05-01T01:13:57.611Z,10.83
2023-05-01T01:14:57.596Z,10.83
2023-05-01T01:16:57.598Z,10.88
2023-05-01T01:17:57.578Z,10.88
2023-05-01T01:18:57.555Z,10.85
2023-05-01T01:19:57.845Z,10.80
2023-05-01T01:20:57.520Z,10.83
2023-05-01T01:21:57.501Z,10.83
2023-05-01T01:22:57.490Z,10.87
2023-05-01T01:23:57.478Z,10.83
2023-05-01T01:24:57.498Z,10.78
2023-05-01T01:25:57.478Z,10.80
2023-05-01T01:26:57.437Z,10.75
2023-05-01T01:27:57.426Z,10.65
2023-05-01T01:28:57.412Z,10.65
2023-05-01T01:29:57.635Z,10.63
2023-05-01T01:30:57.437Z,10.65
2023-05-01T01:31:57.370Z,10.63
2023-05-01T01:32:57.410Z,10.59
2023-05-01T01:33:57.351Z,10.54
2023-05-01T01:34:57.343Z,10.50
2023-05-01T01:35:57.316Z,10.47
2023-05-01T01:36:57.302Z,10.50
2023-05-01T01:37:57.296Z,10.52
2023-05-01T01:38:57.275Z,10.51
2023-05-01T01:39:57.605Z,10.48
2023-05-01T01:40:57.248Z,10.44
2023-05-01T01:41:57.264Z,10.41
2023-05-01T01:42:57.228Z,10.38
2023-05-01T01:43:57.208Z,10.38
2023-05-01T01:44:57.200Z,10.36
2023-05-01T01:45:57.219Z,10.40
2023-05-01T01:46:57.180Z,10.44
2023-05-01T01:47:57.224Z,10.48
2023-05-01T01:48:57.151Z,10.54
2023-05-01T01:49:57.390Z,10.59
2023-05-01T01:50:57.120Z,10.66
2023-05-01T01:51:57.119Z,10.75
2023-05-01T01:52:57.090Z,10.80
2023-05-01T01:53:57.080Z,10.80
2023-05-01T01:54:57.063Z,10.80
2023-05-01T01:55:57.049Z,10.80
2023-05-01T01:56:57.037Z,10.78
2023-05-01T01:57:57.047Z,10.77
2023-05-01T01:58:57.014Z,10.77
2023-05-01T01:59:57.251Z,10.75
2023-05-01T02:00:56.981Z,10.75
2023-05-01T02:01:56.997Z,10.66
2023-05-01T02:02:57.005Z,10.50
2023-05-01T02:03:57.008Z,10.40
2023-05-01T02:04:56.932Z,10.33
2023-05-01T02:05:56.950Z,10.25
2023-05-01T02:06:56.904Z,10.17
2023-05-01T02:07:56.894Z,10.14
2023-05-01T02:08:56.886Z,10.09
2023-05-01T02:09:57.182Z,10.04
2023-05-01T02:10:56.860Z,9.96
2023-05-01T02:11:56.849Z,9.97
2023-05-01T02:12:56.853Z,10.01
2023-05-01T02:13:56.846Z,10.01
2023-05-01T02:14:56.807Z,10.04
2023-05-01T02:15:56.805Z,10.09
2023-05-01T02:16:56.774Z,10.09
2023-05-01T02:17:56.802Z,10.14
2023-05-01T02:18:56.752Z,10.20
2023-05-01T02:19:56.930Z,10.18
2023-05-01T02:20:56.721Z,10.26
2023-05-01T02:21:56.707Z,10.23
2023-05-01T02:22:56.699Z,10.32
2023-05-01T02:23:56.678Z,10.36
2023-05-01T02:24:56.667Z,10.38
2023-05-01T02:25:56.659Z,10.40
2023-05-01T02:26:56.646Z,10.38
2023-05-01T02:27:56.628Z,10.34
2023-05-01T02:28:56.614Z,10.36
2023-05-01T02:29:56.850Z,10.42
2023-05-01T02:30:56.592Z,10.45
2023-05-01T02:31:56.755Z,10.48
2023-05-01T02:32:56.588Z,10.52
2023-05-01T02:33:56.547Z,10.48
2023-05-01T02:34:56.534Z,10.50
2023-05-01T02:35:56.520Z,10.51
2023-05-01T02:36:56.510Z,10.54
2023-05-01T02:37:56.503Z,10.59
2023-05-01T02:38:56.482Z,10.60
2023-05-01T02:39:56.647Z,10.59
2023-05-01T02:40:56.454Z,10.63
2023-05-01T02:41:56.440Z,10.63
2023-05-01T02:42:56.429Z,10.66
2023-05-01T02:43:56.422Z,10.69
2023-05-01T02:44:56.405Z,10.66
2023-05-01T02:45:56.473Z,10.69
2023-05-01T02:46:56.450Z,10.72
2023-05-01T02:47:56.428Z,10.72
2023-05-01T02:48:56.354Z,10.75
2023-05-01T02:49:56.561Z,10.73
2023-05-01T02:50:56.337Z,10.78
2023-05-01T02:51:56.320Z,10.81
2023-05-01T02:52:56.302Z,10.72
2023-05-01T02:53:56.292Z,10.67
2023-05-01T02:54:56.272Z,10.70
2023-05-01T02:55:56.261Z,10.78
2023-05-01T02:56:56.249Z,10.84
2023-05-01T02:57:56.235Z,10.90
2023-05-01T02:58:56.231Z,10.88
2023-05-01T02:59:56.468Z,10.93
2023-05-01T03:00:56.253Z,10.93
2023-05-01T03:01:56.206Z,10.96
2023-05-01T03:02:56.221Z,10.96
2023-05-01T03:03:56.218Z,10.93
2023-05-01T03:04:56.151Z,11.01
2023-05-01T03:05:56.245Z,11.02
2023-05-01T03:06:56.120Z,11.06
2023-05-01T03:07:56.113Z,11.05
2023-05-01T03:08:56.096Z,11.02
2023-05-01T03:09:56.275Z,11.05
2023-05-01T03:10:56.073Z,11.02
2023-05-01T03:11:56.058Z,11.05
2023-05-01T03:12:56.045Z,11.03
2023-05-01T03:13:56.030Z,11.01
2023-05-01T03:14:56.017Z,11.01
2023-05-01T03:15:56.089Z,11.01
2023-05-01T03:16:56.088Z,10.98
2023-05-01T03:17:56.068Z,10.96
2023-05-01T03:18:55.977Z,11.02
2023-05-01T03:19:56.198Z,11.03
2023-05-01T03:20:55.942Z,11.02
2023-05-01T03:21:55.935Z,10.95
2023-05-01T03:22:55.913Z,11.01
2023-05-01T03:23:55.902Z,10.98
2023-05-01T03:24:55.892Z,10.96
2023-05-01T03:25:55.871Z,10.98
2023-05-01T03:26:55.862Z,10.96
2023-05-01T03:27:55.868Z,11.01
2023-05-01T03:28:55.842Z,10.96
2023-05-01T03:29:56.003Z,10.96
2023-05-01T03:30:55.808Z,10.95
2023-05-01T03:31:55.829Z,10.93
2023-05-01T03:32:55.859Z,10.96
2023-05-01T03:33:55.889Z,11.02
2023-05-01T03:34:55.818Z,11.02
2023-05-01T03:35:55.751Z,11.02
2023-05-01T03:36:55.737Z,11.03
2023-05-01T03:37:55.719Z,11.03
2023-05-01T03:38:55.710Z,11.05
2023-05-01T03:39:55.938Z,11.03
2023-05-01T03:40:55.684Z,10.98
2023-05-01T03:41:55.668Z,10.99
2023-05-01T03:42:55.649Z,10.93
2023-05-01T03:43:55.641Z,10.90
2023-05-01T03:44:55.625Z,10.95
2023-05-01T03:45:55.681Z,10.91
2023-05-01T03:46:55.625Z,10.91
2023-05-01T03:47:55.678Z,10.93
2023-05-01T03:48:55.583Z,11.02
2023-05-01T03:49:55.831Z,11.01
2023-05-01T03:50:55.569Z,11.01
2023-05-01T03:51:55.537Z,11.03
2023-05-01T03:52:55.526Z,10.98
2023-05-01T03:53:55.511Z,10.95
2023-05-01T03:54:55.506Z,10.96
2023-05-01T03:55:55.484Z,10.91
2023-05-01T03:56:55.485Z,10.91
2023-05-01T03:57:55.455Z,10.88
2023-05-01T03:58:55.457Z,10.85
2023-05-01T03:59:55.745Z,10.83
2023-05-01T04:00:55.432Z,10.85
2023-05-01T04:01:55.416Z,10.87
2023-05-01T04:02:55.594Z,10.90
2023-05-01T04:03:55.505Z,10.90
2023-05-01T04:04:55.378Z,10.90
2023-05-01T04:05:55.389Z,10.85
2023-05-01T04:06:55.381Z,10.83
2023-05-01T04:07:55.337Z,10.83
2023-05-01T04:08:55.320Z,10.81
2023-05-01T04:09:55.441Z,10.78
2023-05-01T04:10:55.293Z,10.75
2023-05-01T04:11:55.283Z,10.83
2023-05-01T04:12:55.272Z,10.78
2023-05-01T04:13:55.256Z,10.83
2023-05-01T04:14:55.244Z,10.85
2023-05-01T04:15:55.319Z,10.83
2023-05-01T04:16:55.225Z,10.80
2023-05-01T04:17:55.286Z,10.81
2023-05-01T04:18:55.204Z,10.81
2023-05-01T04:19:55.378Z,10.80
2023-05-01T04:20:55.168Z,10.81
2023-05-01T04:21:55.196Z,10.85
2023-05-01T04:22:55.168Z,10.84
2023-05-01T04:23:55.125Z,10.85
2023-05-01T04:24:55.126Z,10.93
2023-05-01T04:25:55.104Z,10.95
2023-05-01T04:26:55.090Z,10.96
2023-05-01T04:27:55.078Z,11.01
2023-05-01T04:28:55.062Z,10.96
2023-05-01T04:29:55.317Z,11.02
2023-05-01T04:30:55.035Z,10.95
2023-05-01T04:31:55.071Z,10.87
2023-05-01T04:32:55.089Z,10.95
2023-05-01T04:33:54.997Z,11.01
2023-05-01T04:34:54.990Z,10.93
2023-05-01T04:35:54.971Z,10.96
2023-05-01T04:36:54.955Z,10.95
2023-05-01T04:37:54.966Z,10.91
2023-05-01T04:38:54.940Z,10.96
2023-05-01T04:39:55.197Z,10.98
2023-05-01T04:40:54.905Z,10.88
2023-05-01T04:41:54.890Z,10.90
2023-05-01T04:42:54.880Z,10.91
2023-05-01T04:43:54.871Z,10.98
2023-05-01T04:44:54.876Z,10.98
2023-05-01T04:45:54.855Z,11.01
2023-05-01T04:46:54.852Z,11.06
2023-05-01T04:47:54.919Z,11.02
2023-05-01T04:48:54.809Z,11.06
2023-05-01T04:49:55.124Z,11.08
2023-05-01T04:50:54.784Z,11.13
2023-05-01T04:51:54.761Z,11.08
2023-05-01T04:52:54.745Z,11.06
2023-05-01T04:53:54.778Z,11.01
2023-05-01T04:54:54.734Z,11.05
2023-05-01T04:55:54.710Z,11.03
2023-05-01T04:56:54.698Z,11.03
2023-05-01T04:57:54.684Z,11.02
2023-05-01T04:58:54.675Z,11.01
2023-05-01T04:59:54.790Z,11.08
2023-05-01T05:00:54.647Z,11.13
2023-05-01T05:01:54.760Z,11.14
2023-05-01T05:02:54.722Z,11.17
2023-05-01T05:03:54.697Z,11.21
2023-05-01T05:04:54.615Z,11.22
2023-05-01T05:05:54.581Z,11.25
2023-05-01T05:06:54.639Z,11.25
2023-05-01T05:07:54.563Z,11.27
2023-05-01T05:08:54.543Z,11.29
2023-05-01T05:09:54.817Z,11.32
2023-05-01T05:10:54.517Z,11.39
2023-05-01T05:11:54.506Z,11.42
2023-05-01T05:12:54.496Z,11.47
2023-05-01T05:13:54.476Z,11.47
2023-05-01T05:14:54.466Z,11.52
2023-05-01T05:15:54.480Z,11.58
2023-05-01T05:17:56.480Z,11.62
2023-05-01T05:18:54.415Z,11.65
2023-05-01T05:19:54.794Z,11.69
2023-05-01T05:20:54.389Z,11.73
2023-05-01T05:21:54.378Z,11.65
2023-05-01T05:22:54.372Z,11.67
2023-05-01T05:23:54.351Z,11.61
2023-05-01T05:24:54.332Z,11.62
2023-05-01T05:25:54.346Z,11.61
2023-05-01T05:26:54.317Z,11.55
2023-05-01T05:27:54.294Z,11.57
2023-05-01T05:28:54.292Z,11.62
2023-05-01T05:29:54.486Z,11.69
2023-05-01T05:30:54.268Z,11.70
2023-05-01T05:31:54.355Z,11.78
2023-05-01T05:32:54.261Z,11.83
2023-05-01T05:33:54.219Z,11.90
2023-05-01T05:34:54.210Z,11.91
2023-05-01T05:35:54.196Z,11.95
2023-05-01T05:36:54.184Z,12.01
2023-05-01T05:37:54.164Z,12.03
2023-05-01T05:38:54.158Z,12.12
2023-05-01T05:39:54.363Z,12.18
2023-05-01T05:40:54.140Z,12.23
2023-05-01T05:41:54.149Z,12.19
2023-05-01T05:42:54.104Z,12.26
2023-05-01T05:43:54.105Z,12.28
2023-05-01T05:44:54.086Z,12.27
2023-05-01T05:45:54.093Z,12.34
2023-05-01T05:46:54.057Z,12.31
2023-05-01T05:47:54.120Z,12.37
2023-05-01T05:48:54.028Z,12.37
2023-05-01T05:49:54.275Z,12.44
2023-05-01T05:50:54.003Z,12.44
2023-05-01T05:51:53.994Z,12.56
2023-05-01T05:52:53.979Z,12.56
2023-05-01T05:53:53.968Z,12.61
2023-05-01T05:54:53.966Z,12.48
2023-05-01T05:55:53.947Z,12.55
2023-05-01T05:56:53.943Z,12.51
2023-05-01T05:57:53.946Z,12.53
2023-05-01T05:58:53.904Z,12.40
2023-05-01T05:59:54.132Z,12.34
2023-05-01T06:00:53.880Z,12.44
2023-05-01T06:01:53.864Z,12.52
2023-05-01T06:02:53.914Z,12.49
2023-05-01T06:03:53.871Z,12.53
2023-05-01T06:04:53.828Z,12.58
2023-05-01T06:05:53.857Z,12.67
2023-05-01T06:06:53.881Z,12.75
2023-05-01T06:07:53.788Z,12.71
2023-05-01T06:08:53.773Z,12.77
2023-05-01T06:09:53.878Z,12.89
2023-05-01T06:10:53.753Z,13.00
2023-05-01T06:11:53.745Z,12.95
2023-05-01T06:12:59.794Z,13.01
2023-05-01T06:13:55.737Z,13.00
2023-05-01T06:14:53.695Z,13.03
2023-05-01T06:15:53.714Z,13.07
2023-05-01T06:16:53.668Z,13.05
2023-05-01T06:17:53.699Z,13.01
2023-05-01T06:18:53.642Z,13.05
2023-05-01T06:19:53.842Z,13.22
2023-05-01T06:20:53.616Z,13.32
2023-05-01T06:21:53.615Z,13.32
2023-05-01T06:22:53.594Z,13.33
2023-05-01T06:23:53.577Z,13.30
2023-05-01T06:24:53.566Z,13.32
2023-05-01T06:25:53.554Z,13.33
2023-05-01T06:26:53.540Z,13.29
2023-05-01T06:27:53.531Z,13.35
2023-05-01T06:28:53.510Z,13.40
2023-05-01T06:29:53.727Z,13.50
2023-05-01T06:30:53.586Z,13.38
2023-05-01T06:31:53.522Z,13.33
2023-05-01T06:32:53.510Z,13.37
2023-05-01T06:33:53.449Z,13.47
2023-05-01T06:34:53.434Z,13.56
2023-05-01T06:35:53.420Z,13.63
2023-05-01T06:36:53.404Z,13.62
2023-05-01T06:37:53.392Z,13.69
2023-05-01T06:38:53.379Z,13.80
2023-05-01T06:39:53.378Z,13.90
2023-05-01T06:40:53.364Z,13.91
2023-05-01T06:41:53.340Z,13.84
2023-05-01T06:42:53.333Z,13.81
2023-05-01T06:43:53.330Z,13.78
2023-05-01T06:44:53.299Z,13.61
2023-05-01T06:45:53.313Z,13.50
2023-05-01T06:46:53.323Z,13.72
2023-05-01T06:47:53.270Z,13.81
2023-05-01T06:48:53.249Z,13.78
2023-05-01T06:49:53.258Z,13.76
2023-05-01T06:50:53.221Z,13.88
2023-05-01T06:51:53.214Z,14.02
2023-05-01T06:52:53.194Z,14.24
2023-05-01T06:53:53.186Z,14.50
2023-05-01T06:54:53.170Z,14.69
2023-05-01T06:55:53.159Z,14.54
2023-05-01T06:56:53.146Z,14.76
2023-05-01T06:57:53.128Z,14.83
2023-05-01T06:58:53.117Z,14.83
2023-05-01T06:59:53.144Z,14.79
2023-05-01T07:00:53.142Z,14.77
2023-05-01T07:01:53.159Z,14.79
2023-05-01T07:02:53.164Z,14.70
2023-05-01T07:03:53.058Z,14.83
2023-05-01T07:04:53.037Z,15.00
2023-05-01T07:05:53.030Z,15.18
2023-05-01T07:06:53.096Z,15.38
2023-05-01T07:08:00.853Z,15.65
2023-05-01T07:08:54.990Z,15.89
2023-05-01T07:09:52.977Z,16.17
2023-05-01T07:10:52.965Z,16.37
2023-05-01T07:11:52.955Z,16.41
2023-05-01T07:12:52.948Z,16.48
2023-05-01T07:13:52.932Z,16.45
2023-05-01T07:14:52.925Z,16.34
2023-05-01T07:15:54.554Z,16.33
2023-05-01T07:16:52.987Z,16.34
2023-05-01T07:17:52.966Z,16.26
2023-05-01T07:18:52.864Z,16.48
2023-05-01T07:19:52.853Z,16.74
2023-05-01T07:20:52.860Z,16.97
2023-05-01T07:21:52.831Z,17.15
2023-05-01T07:22:52.821Z,17.36
2023-05-01T07:23:52.806Z,17.61
2023-05-01T07:24:52.788Z,18.39
2023-05-01T07:25:52.776Z,19.46
2023-05-01T07:26:52.760Z,19.92
2023-05-01T07:27:52.749Z,20.32
2023-05-01T07:28:52.733Z,20.81
2023-05-01T07:29:52.728Z,20.83
2023-05-01T07:30:52.716Z,21.02
2023-05-01T07:31:52.767Z,21.31
2023-05-01T07:32:52.765Z,21.12
2023-05-01T07:33:54.247Z,21.06
2023-05-01T07:34:52.661Z,21.13
2023-05-01T07:35:52.647Z,21.34
2023-05-01T07:36:52.640Z,21.80
2023-05-01T07:37:52.623Z,21.68
2023-05-01T07:38:52.607Z,22.06
2023-05-01T07:39:52.602Z,22.57
2023-05-01T07:40:52.580Z,22.79
2023-05-01T07:41:52.568Z,22.86
2023-05-01T07:42:54.491Z,22.98
2023-05-01T07:43:52.588Z,22.88
2023-05-01T07:44:52.528Z,23.25
2023-05-01T07:45:52.597Z,22.92
2023-05-01T07:46:52.507Z,22.79
2023-05-01T07:47:52.608Z,22.38
2023-05-01T07:48:52.477Z,22.08
2023-05-01T07:49:52.493Z,21.74
2023-05-01T07:50:52.456Z,21.46
2023-05-01T07:51:52.443Z,21.38
2023-05-01T07:52:52.428Z,21.54
2023-05-01T07:53:52.418Z,21.71
2023-05-01T07:54:52.405Z,22.19
2023-05-01T07:55:52.397Z,22.26
2023-05-01T07:56:52.377Z,22.60
2023-05-01T07:57:52.378Z,21.90
2023-05-01T07:58:52.351Z,21.13
2023-05-01T07:59:52.342Z,21.47
2023-05-01T08:00:52.331Z,21.91
2023-05-01T08:01:52.358Z,22.48
2023-05-01T08:02:52.366Z,22.80
2023-05-01T08:03:52.373Z,22.65
2023-05-01T08:04:52.364Z,23.05
2023-05-01T08:05:52.290Z,23.16
2023-05-01T08:06:52.441Z,23.87
2023-05-01T08:07:52.282Z,23.42
2023-05-01T08:08:52.228Z,23.94
2023-05-01T08:09:52.219Z,24.47
2023-05-01T08:10:52.203Z,25.04
2023-05-01T08:11:52.191Z,25.69
2023-05-01T08:12:52.222Z,26.28
2023-05-01T08:13:52.179Z,26.76
2023-05-01T08:14:52.158Z,26.76
2023-05-01T08:15:52.180Z,27.21
2023-05-01T08:16:52.133Z,26.84
2023-05-01T08:17:52.183Z,26.69
2023-05-01T08:18:52.109Z,26.84
2023-05-01T08:19:52.095Z,26.68
2023-05-01T08:20:52.087Z,26.65
2023-05-01T08:21:52.114Z,26.16
2023-05-01T08:22:52.056Z,26.05
2023-05-01T08:23:52.050Z,26.07
2023-05-01T08:24:52.034Z,25.73
2023-05-01T08:25:52.024Z,25.57
2023-05-01T08:26:52.004Z,25.16
2023-05-01T08:27:51.997Z,24.98
2023-05-01T08:28:51.982Z,24.87
2023-05-01T08:29:51.989Z,25.01
2023-05-01T08:30:51.964Z,24.80
2023-05-01T08:31:52.107Z,24.46
2023-05-01T08:32:52.015Z,23.90
2023-05-01T08:33:51.919Z,23.64
2023-05-01T08:34:51.910Z,23.42
2023-05-01T08:35:51.898Z,23.94
2023-05-01T08:36:51.887Z,25.09
2023-05-01T08:37:51.896Z,25.22
2023-05-01T08:38:51.867Z,24.98
2023-05-01T08:39:51.854Z,24.27
2023-05-01T08:40:51.838Z,24.18
2023-05-01T08:41:51.825Z,23.74
2023-05-01T08:42:51.818Z,23.84
2023-05-01T08:43:51.804Z,24.30
2023-05-01T08:44:51.788Z,25.24
2023-05-01T08:45:51.778Z,25.05
2023-05-01T08:46:51.780Z,23.87
2023-05-01T08:47:51.792Z,23.42
2023-05-01T08:48:51.742Z,23.42
2023-05-01T08:49:51.724Z,23.35
2023-05-01T08:50:51.709Z,23.31
2023-05-01T08:51:51.704Z,23.75
2023-05-01T08:52:51.685Z,23.45
2023-05-01T08:53:51.700Z,23.39
2023-05-01T08:54:51.674Z,23.90
2023-05-01T08:55:51.658Z,23.64
2023-05-01T08:56:51.638Z,23.56
2023-05-01T08:57:51.631Z,23.87
2023-05-01T08:58:51.611Z,24.34
2023-05-01T08:59:51.604Z,25.13
2023-05-01T09:00:51.587Z,25.85
2023-05-01T09:01:51.668Z,25.41
2023-05-01T09:02:51.621Z,25.34
2023-05-01T09:03:51.580Z,24.32
2023-05-01T09:04:51.562Z,24.06
2023-05-01T09:05:51.530Z,22.80
2023-05-01T09:06:51.558Z,22.68
2023-05-01T09:07:51.505Z,22.45
2023-05-01T09:08:51.491Z,23.50
2023-05-01T09:09:51.502Z,24.60
2023-05-01T09:10:51.464Z,25.23
2023-05-01T09:11:51.455Z,25.13
2023-05-01T09:12:51.441Z,25.46
2023-05-01T09:13:51.429Z,25.69
2023-05-01T09:14:51.417Z,25.64
2023-05-01T09:15:51.441Z,26.34
2023-05-01T09:16:51.562Z,26.80
2023-05-01T09:17:51.466Z,27.10
2023-05-01T09:18:51.379Z,27.10
2023-05-01T09:19:51.355Z,26.20
2023-05-01T09:20:51.344Z,25.92
2023-05-01T09:21:51.343Z,26.25
2023-05-01T09:22:51.353Z,26.56
2023-05-01T09:23:51.343Z,27.28
2023-05-01T09:24:51.299Z,28.24
2023-05-01T09:25:52.132Z,29.23
2023-05-01T09:26:51.275Z,29.44
2023-05-01T09:27:51.262Z,28.71
2023-05-01T09:28:51.256Z,27.87
2023-05-01T09:29:51.246Z,27.56
2023-05-01T09:30:51.276Z,27.68
2023-05-01T09:31:51.212Z,27.58
2023-05-01T09:32:51.231Z,27.58
2023-05-01T09:33:51.192Z,27.91
2023-05-01T09:34:51.186Z,28.85
2023-05-01T09:35:51.171Z,29.56
2023-05-01T09:36:51.155Z,28.40
2023-05-01T09:37:51.156Z,27.51
2023-05-01T09:38:51.136Z,26.84
2023-05-01T09:39:51.124Z,27.74
2023-05-01T09:40:51.110Z,27.80
2023-05-01T09:41:51.142Z,27.47
2023-05-01T09:42:51.093Z,27.13
2023-05-01T09:43:51.077Z,27.21
2023-05-01T09:44:51.066Z,27.86
2023-05-01T09:45:51.088Z,27.68
2023-05-01T09:46:51.046Z,28.40
2023-05-01T09:47:51.100Z,29.13
2023-05-01T09:48:51.068Z,29.29
2023-05-01T09:49:51.092Z,27.41
2023-05-01T09:50:51.133Z,25.72
2023-05-01T09:51:50.978Z,24.40
2023-05-01T09:52:50.966Z,23.10
2023-05-01T09:53:50.954Z,22.79
2023-05-01T09:54:50.962Z,23.89
2023-05-01T09:55:50.950Z,24.75
2023-05-01T09:56:50.941Z,25.57
2023-05-01T09:57:50.931Z,26.12
2023-05-01T09:58:50.896Z,26.87
2023-05-01T09:59:50.889Z,26.80
2023-05-01T10:00:51.053Z,25.55
2023-05-01T10:01:51.057Z,25.73
2023-05-01T10:02:51.146Z,26.07
2023-05-01T10:03:51.000Z,26.27
2023-05-01T10:04:50.869Z,26.62
2023-05-01T10:05:50.818Z,27.28
2023-05-01T10:06:50.914Z,28.20
2023-05-01T10:07:50.792Z,28.86
2023-05-01T10:08:50.802Z,28.73
2023-05-01T10:09:50.785Z,29.07
2023-05-01T10:10:50.755Z,28.88
2023-05-01T10:11:50.746Z,28.64
2023-05-01T10:12:50.733Z,28.40
2023-05-01T10:13:50.751Z,28.77
2023-05-01T10:14:50.758Z,29.40
2023-05-01T10:15:50.697Z,30.17
2023-05-01T10:16:50.712Z,30.71
2023-05-01T10:17:50.687Z,30.98
2023-05-01T10:18:50.662Z,31.29
2023-05-01T10:19:50.653Z,30.85
2023-05-01T10:20:50.641Z,31.34
2023-05-01T10:21:50.625Z,30.53
2023-05-01T10:22:50.621Z,30.52
2023-05-01T10:23:50.609Z,30.97
2023-05-01T10:24:50.608Z,31.31
2023-05-01T10:25:50.582Z,31.13
2023-05-01T10:26:50.590Z,31.51
2023-05-01T10:27:50.570Z,31.69
2023-05-01T10:28:50.541Z,32.10
2023-05-01T10:29:50.553Z,32.12
2023-05-01T10:30:50.559Z,31.99
2023-05-01T10:31:50.601Z,31.66
2023-05-01T10:32:50.593Z,31.69
2023-05-01T10:33:50.495Z,31.75
2023-05-01T10:34:50.472Z,31.94
2023-05-01T10:35:50.457Z,31.87
2023-05-01T10:36:50.454Z,32.06
2023-05-01T10:37:50.441Z,31.14
2023-05-01T10:38:50.431Z,30.07
2023-05-01T10:39:50.423Z,30.08
2023-05-01T10:40:50.455Z,29.59
2023-05-01T10:41:50.397Z,29.52
2023-05-01T10:42:50.383Z,29.08
2023-05-01T10:43:50.372Z,28.56
2023-05-01T10:44:50.360Z,28.55
2023-05-01T10:45:50.541Z,28.37
2023-05-01T10:46:50.412Z,27.22
2023-05-01T10:47:50.366Z,25.83
2023-05-01T10:48:50.317Z,25.70
2023-05-01T10:49:50.294Z,25.99
2023-05-01T10:50:50.288Z,26.31
2023-05-01T10:51:50.270Z,26.62
2023-05-01T10:52:50.266Z,26.75
2023-05-01T10:53:50.251Z,26.87
2023-05-01T10:54:50.239Z,26.43
2023-05-01T10:55:50.235Z,26.28
2023-05-01T10:56:50.211Z,26.49
2023-05-01T10:57:50.209Z,27.09
2023-05-01T10:58:50.188Z,27.49
2023-05-01T10:59:50.179Z,27.86
2023-05-01T11:00:50.161Z,27.74
2023-05-01T11:01:50.306Z,27.87
2023-05-01T11:02:50.154Z,27.91
2023-05-01T11:03:50.121Z,27.12
2023-05-01T11:04:50.138Z,27.39
2023-05-01T11:05:50.145Z,26.51
2023-05-01T11:06:50.117Z,25.87
2023-05-01T11:07:50.073Z,25.62
2023-05-01T11:08:50.074Z,25.22
2023-05-01T11:09:50.052Z,25.46
2023-05-01T11:10:50.050Z,25.08
2023-05-01T11:11:50.210Z,24.90
2023-05-01T11:12:50.018Z,25.38
2023-05-01T11:13:50.004Z,24.99
2023-05-01T11:14:49.997Z,23.87
2023-05-01T11:15:49.978Z,24.31
2023-05-01T11:16:50.012Z,24.43
2023-05-01T11:17:50.033Z,24.69
2023-05-01T11:18:49.945Z,24.50
2023-05-01T11:19:49.935Z,23.87
2023-05-01T11:20:49.916Z,23.67
2023-05-01T11:21:49.905Z,23.86
2023-05-01T11:22:49.894Z,24.68
2023-05-01T11:23:49.886Z,26.13
2023-05-01T11:24:49.869Z,27.51
2023-05-01T11:25:49.871Z,27.37
2023-05-01T11:26:49.845Z,26.61
2023-05-01T11:27:49.850Z,26.53
2023-05-01T11:28:49.822Z,25.83
2023-05-01T11:29:49.836Z,25.42
2023-05-01T11:30:49.795Z,25.45
2023-05-01T11:31:49.814Z,25.34
2023-05-01T11:32:49.811Z,25.69
2023-05-01T11:33:49.782Z,25.57
2023-05-01T11:34:49.750Z,25.05
2023-05-01T11:35:49.731Z,25.83
2023-05-01T11:36:49.721Z,26.31
2023-05-01T11:37:49.712Z,26.31
2023-05-01T11:38:49.701Z,25.73
2023-05-01T11:39:49.684Z,25.58
2023-05-01T11:40:49.674Z,24.97
2023-05-01T11:41:49.704Z,24.03
2023-05-01T11:42:49.655Z,24.30
2023-05-01T11:43:49.661Z,23.42
2023-05-01T11:44:49.635Z,23.69
2023-05-01T11:45:49.642Z,23.97
2023-05-01T11:46:49.602Z,23.97
2023-05-01T11:47:49.678Z,23.79
2023-05-01T11:48:49.571Z,23.97
2023-05-01T11:49:49.584Z,24.08
2023-05-01T11:50:49.560Z,23.89
2023-05-01T11:51:49.548Z,23.39
2023-05-01T11:52:49.648Z,23.34
2023-05-01T11:53:49.524Z,23.39
2023-05-01T11:54:49.504Z,23.49
2023-05-01T11:55:49.488Z,23.62
2023-05-01T11:56:49.478Z,24.10
2023-05-01T11:57:49.479Z,24.37
2023-05-01T11:58:49.456Z,24.65
2023-05-01T11:59:49.442Z,25.02
2023-05-01T12:00:49.426Z,24.75
2023-05-01T12:01:49.463Z,23.97
2023-05-01T12:02:49.473Z,24.32
2023-05-01T12:03:49.520Z,25.07
2023-05-01T12:04:49.403Z,25.80
2023-05-01T12:05:49.393Z,25.92
2023-05-01T12:06:49.540Z,25.41
2023-05-01T12:07:49.344Z,25.57
2023-05-01T12:08:49.331Z,25.41
2023-05-01T12:09:49.319Z,25.87
2023-05-01T12:10:49.306Z,26.38
2023-05-01T12:11:51.909Z,27.39
2023-05-01T12:12:49.284Z,27.66
2023-05-01T12:13:49.285Z,26.64
2023-05-01T12:14:49.255Z,25.77
2023-05-01T12:15:49.272Z,24.92
2023-05-01T12:16:49.357Z,24.18
2023-05-01T12:17:49.276Z,23.83
2023-05-01T12:18:49.217Z,23.94
2023-05-01T12:19:49.197Z,23.75
2023-05-01T12:20:49.192Z,23.30
2023-05-01T12:21:49.193Z,23.19
2023-05-01T12:22:49.161Z,23.10
2023-05-01T12:23:49.163Z,23.04
2023-05-01T12:24:49.141Z,23.02
2023-05-01T12:25:49.122Z,23.22
2023-05-01T12:26:49.138Z,23.13
2023-05-01T12:27:49.102Z,22.90
2023-05-01T12:28:49.087Z,22.83
2023-05-01T12:29:49.071Z,22.62
2023-05-01T12:30:49.170Z,22.61
2023-05-01T12:31:49.114Z,22.32
2023-05-01T12:32:49.071Z,22.23
2023-05-01T12:33:49.021Z,21.95
2023-05-01T12:34:49.009Z,21.79
2023-05-01T12:35:48.997Z,21.53
2023-05-01T12:36:48.986Z,21.34
2023-05-01T12:37:48.999Z,21.31
2023-05-01T12:38:48.958Z,21.32
2023-05-01T12:39:48.943Z,21.29
2023-05-01T12:40:48.940Z,21.24
2023-05-01T12:41:48.920Z,21.11
2023-05-01T12:42:48.902Z,21.19
2023-05-01T12:43:48.900Z,21.24
2023-05-01T12:44:48.881Z,21.21
2023-05-01T12:45:48.880Z,21.37
2023-05-01T12:46:48.897Z,21.38
2023-05-01T12:47:48.923Z,21.21
2023-05-01T12:48:48.833Z,21.17
2023-05-01T12:49:48.817Z,21.22
2023-05-01T12:50:49.904Z,21.17
2023-05-01T12:51:48.797Z,20.91
2023-05-01T12:52:48.787Z,20.84
2023-05-01T12:53:48.789Z,20.75
2023-05-01T12:54:48.756Z,20.86
2023-05-01T12:55:48.734Z,20.84